sensor_id;sensor_type;location;lat;lon;timestamp;P1;durP1;ratioP1;P2;durP2;ratioP2
2622;SDS011;1321;48.690;9.022;2022-09-01T00:00:24;12.67;;;11.43;;
2622;SDS011;1321;48.690;9.022;2022-09-01T00:02:55;13.97;;;10.97;;
2622;SDS011;1321;48.690;9.022;2022-09-01T00:05:24;11.73;;;10.60;;
2622;SDS011;1321;48.690;9.022;2022-09-01T00:07:52;11.87;;;10.67;;
2622;SDS011;1321;48.690;9.022;2022-09-01T00:10:20;11.47;;;10.10;;
2622;SDS011;1321;48.690;9.022;2022-09-01T00:12:50;11.90;;;10.43;;
2622;SDS011;1321;48.690;9.022;2022-09-01T00:15:18;13.60;;;11.27;;
2622;SDS011;1321;48.690;9.022;2022-09-01T00:17:47;12.23;;;10.87;;
2622;SDS011;1321;48.690;9.022;2022-09-01T00:20:15;11.70;;;10.50;;
2622;SDS011;1321;48.690;9.022;2022-09-01T00:22:46;11.40;;;10.20;;
2622;SDS011;1321;48.690;9.022;2022-09-01T00:25:14;13.77;;;10.40;;
2622;SDS011;1321;48.690;9.022;2022-09-01T00:27:45;10.57;;;9.57;;
2622;SDS011;1321;48.690;9.022;2022-09-01T00:30:15;11.30;;;9.80;;
2622;SDS011;1321;48.690;9.022;2022-09-01T00:32:48;10.13;;;9.13;;
2622;SDS011;1321;48.690;9.022;2022-09-01T00:35:17;11.60;;;9.63;;
2622;SDS011;1321;48.690;9.022;2022-09-01T00:37:46;10.73;;;9.40;;
2622;SDS011;1321;48.690;9.022;2022-09-01T00:40:15;10.03;;;9.03;;
2622;SDS011;1321;48.690;9.022;2022-09-01T00:42:45;9.83;;;8.83;;
2622;SDS011;1321;48.690;9.022;2022-09-01T00:45:15;11.13;;;10.00;;
2622;SDS011;1321;48.690;9.022;2022-09-01T00:47:47;11.17;;;9.90;;
2622;SDS011;1321;48.690;9.022;2022-09-01T00:50:16;11.70;;;10.50;;
2622;SDS011;1321;48.690;9.022;2022-09-01T00:52:47;10.43;;;9.43;;
2622;SDS011;1321;48.690;9.022;2022-09-01T00:55:18;10.37;;;9.10;;
2622;SDS011;1321;48.690;9.022;2022-09-01T00:57:51;9.50;;;8.57;;
2622;SDS011;1321;48.690;9.022;2022-09-01T01:00:22;10.77;;;9.67;;
2622;SDS011;1321;48.690;9.022;2022-09-01T01:02:53;12.20;;;9.93;;
2622;SDS011;1321;48.690;9.022;2022-09-01T01:05:22;10.43;;;9.33;;
2622;SDS011;1321;48.690;9.022;2022-09-01T01:07:53;14.50;;;10.43;;
2622;SDS011;1321;48.690;9.022;2022-09-01T01:10:22;11.83;;;10.63;;
2622;SDS011;1321;48.690;9.022;2022-09-01T01:12:51;13.13;;;11.17;;
2622;SDS011;1321;48.690;9.022;2022-09-01T01:15:21;13.70;;;10.93;;
2622;SDS011;1321;48.690;9.022;2022-09-01T01:17:49;14.90;;;11.83;;
2622;SDS011;1321;48.690;9.022;2022-09-01T01:20:17;13.37;;;12.00;;
2622;SDS011;1321;48.690;9.022;2022-09-01T01:23:11;12.77;;;10.70;;
2622;SDS011;1321;48.690;9.022;2022-09-01T01:25:45;11.70;;;10.53;;
2622;SDS011;1321;48.690;9.022;2022-09-01T01:28:16;10.90;;;9.80;;
2622;SDS011;1321;48.690;9.022;2022-09-01T01:30:48;11.03;;;10.07;;
2622;SDS011;1321;48.690;9.022;2022-09-01T01:33:18;11.20;;;9.80;;
2622;SDS011;1321;48.690;9.022;2022-09-01T01:35:49;12.77;;;9.70;;
2622;SDS011;1321;48.690;9.022;2022-09-01T01:38:18;11.90;;;9.53;;
2622;SDS011;1321;48.690;9.022;2022-09-01T01:40:50;9.83;;;8.90;;
2622;SDS011;1321;48.690;9.022;2022-09-01T01:43:20;11.60;;;9.70;;
2622;SDS011;1321;48.690;9.022;2022-09-01T01:45:49;13.67;;;9.43;;
2622;SDS011;1321;48.690;9.022;2022-09-01T01:48:20;13.50;;;10.50;;
2622;SDS011;1321;48.690;9.022;2022-09-01T01:50:50;12.40;;;10.07;;
2622;SDS011;1321;48.690;9.022;2022-09-01T01:53:20;10.87;;;9.03;;
2622;SDS011;1321;48.690;9.022;2022-09-01T01:55:50;9.03;;;7.80;;
2622;SDS011;1321;48.690;9.022;2022-09-01T01:58:19;12.73;;;11.33;;
2622;SDS011;1321;48.690;9.022;2022-09-01T02:00:51;9.83;;;8.70;;
2622;SDS011;1321;48.690;9.022;2022-09-01T02:03:23;10.30;;;9.00;;
2622;SDS011;1321;48.690;9.022;2022-09-01T02:05:54;12.33;;;9.97;;
2622;SDS011;1321;48.690;9.022;2022-09-01T02:08:23;10.40;;;8.40;;
2622;SDS011;1321;48.690;9.022;2022-09-01T02:10:54;12.33;;;9.97;;
2622;SDS011;1321;48.690;9.022;2022-09-01T02:13:25;11.20;;;9.90;;
2622;SDS011;1321;48.690;9.022;2022-09-01T02:15:56;10.53;;;9.43;;
2622;SDS011;1321;48.690;9.022;2022-09-01T02:18:28;10.07;;;9.00;;
2622;SDS011;1321;48.690;9.022;2022-09-01T02:21:01;10.33;;;9.30;;
2622;SDS011;1321;48.690;9.022;2022-09-01T02:23:32;9.53;;;8.63;;
2622;SDS011;1321;48.690;9.022;2022-09-01T02:26:02;11.87;;;10.00;;
2622;SDS011;1321;48.690;9.022;2022-09-01T02:28:47;10.80;;;9.37;;
2622;SDS011;1321;48.690;9.022;2022-09-01T02:31:20;10.50;;;9.50;;
2622;SDS011;1321;48.690;9.022;2022-09-01T02:33:49;9.33;;;7.90;;
2622;SDS011;1321;48.690;9.022;2022-09-01T02:36:20;9.03;;;8.03;;
2622;SDS011;1321;48.690;9.022;2022-09-01T02:38:50;10.47;;;9.47;;
2622;SDS011;1321;48.690;9.022;2022-09-01T02:41:23;10.23;;;9.17;;
2622;SDS011;1321;48.690;9.022;2022-09-01T02:44:00;9.90;;;8.87;;
2622;SDS011;1321;48.690;9.022;2022-09-01T02:46:29;10.93;;;9.27;;
2622;SDS011;1321;48.690;9.022;2022-09-01T02:48:57;10.20;;;9.07;;
2622;SDS011;1321;48.690;9.022;2022-09-01T02:51:26;9.47;;;8.67;;
2622;SDS011;1321;48.690;9.022;2022-09-01T02:53:56;10.20;;;9.00;;
2622;SDS011;1321;48.690;9.022;2022-09-01T02:56:25;10.20;;;9.23;;
2622;SDS011;1321;48.690;9.022;2022-09-01T02:58:54;10.70;;;8.70;;
2622;SDS011;1321;48.690;9.022;2022-09-01T03:01:23;10.70;;;9.27;;
2622;SDS011;1321;48.690;9.022;2022-09-01T03:03:55;10.60;;;9.60;;
2622;SDS011;1321;48.690;9.022;2022-09-01T03:06:26;10.03;;;9.03;;
2622;SDS011;1321;48.690;9.022;2022-09-01T03:08:57;10.17;;;9.13;;
2622;SDS011;1321;48.690;9.022;2022-09-01T03:11:27;10.43;;;9.20;;
2622;SDS011;1321;48.690;9.022;2022-09-01T03:13:57;10.90;;;9.20;;
2622;SDS011;1321;48.690;9.022;2022-09-01T03:16:25;9.33;;;8.43;;
2622;SDS011;1321;48.690;9.022;2022-09-01T03:18:55;13.90;;;10.90;;
2622;SDS011;1321;48.690;9.022;2022-09-01T03:21:25;9.70;;;8.80;;
2622;SDS011;1321;48.690;9.022;2022-09-01T03:23:53;9.20;;;8.30;;
2622;SDS011;1321;48.690;9.022;2022-09-01T03:26:23;12.53;;;9.93;;
2622;SDS011;1321;48.690;9.022;2022-09-01T03:28:53;10.00;;;9.00;;
2622;SDS011;1321;48.690;9.022;2022-09-01T03:31:21;11.20;;;10.00;;
2622;SDS011;1321;48.690;9.022;2022-09-01T03:33:56;10.90;;;9.80;;
2622;SDS011;1321;48.690;9.022;2022-09-01T03:36:26;10.40;;;9.30;;
2622;SDS011;1321;48.690;9.022;2022-09-01T03:38:56;9.73;;;8.73;;
2622;SDS011;1321;48.690;9.022;2022-09-01T03:41:25;12.10;;;10.17;;
2622;SDS011;1321;48.690;9.022;2022-09-01T03:43:57;10.47;;;9.47;;
2622;SDS011;1321;48.690;9.022;2022-09-01T03:46:26;12.27;;;10.13;;
2622;SDS011;1321;48.690;9.022;2022-09-01T03:49:02;8.83;;;7.93;;
2622;SDS011;1321;48.690;9.022;2022-09-01T03:51:32;10.97;;;9.37;;
2622;SDS011;1321;48.690;9.022;2022-09-01T03:54:04;11.60;;;9.50;;
2622;SDS011;1321;48.690;9.022;2022-09-01T03:56:33;11.33;;;9.17;;
2622;SDS011;1321;48.690;9.022;2022-09-01T03:59:05;12.30;;;9.37;;
2622;SDS011;1321;48.690;9.022;2022-09-01T04:01:34;9.17;;;7.87;;
2622;SDS011;1321;48.690;9.022;2022-09-01T04:04:09;10.10;;;9.10;;
2622;SDS011;1321;48.690;9.022;2022-09-01T04:06:39;11.97;;;8.73;;
2622;SDS011;1321;48.690;9.022;2022-09-01T04:09:08;11.63;;;8.50;;
2622;SDS011;1321;48.690;9.022;2022-09-01T04:11:36;9.47;;;8.47;;
2622;SDS011;1321;48.690;9.022;2022-09-01T04:14:12;9.17;;;8.27;;
2622;SDS011;1321;48.690;9.022;2022-09-01T04:16:41;9.90;;;8.60;;
2622;SDS011;1321;48.690;9.022;2022-09-01T04:19:31;9.30;;;8.30;;
2622;SDS011;1321;48.690;9.022;2022-09-01T04:22:02;10.93;;;9.83;;
2622;SDS011;1321;48.690;9.022;2022-09-01T04:24:31;11.13;;;9.53;;
2622;SDS011;1321;48.690;9.022;2022-09-01T04:27:01;12.60;;;10.50;;
2622;SDS011;1321;48.690;9.022;2022-09-01T04:29:31;17.03;;;12.20;;
2622;SDS011;1321;48.690;9.022;2022-09-01T04:32:00;16.33;;;11.37;;
2622;SDS011;1321;48.690;9.022;2022-09-01T04:34:31;12.13;;;10.90;;
2622;SDS011;1321;48.690;9.022;2022-09-01T04:37:05;13.23;;;11.03;;
2622;SDS011;1321;48.690;9.022;2022-09-01T04:39:38;15.40;;;11.80;;
2622;SDS011;1321;48.690;9.022;2022-09-01T04:42:19;12.27;;;11.07;;
2622;SDS011;1321;48.690;9.022;2022-09-01T04:44:51;13.87;;;11.17;;
2622;SDS011;1321;48.690;9.022;2022-09-01T04:47:19;14.57;;;11.90;;
2622;SDS011;1321;48.690;9.022;2022-09-01T04:50:02;13.40;;;12.00;;
2622;SDS011;1321;48.690;9.022;2022-09-01T04:52:39;13.97;;;11.93;;
2622;SDS011;1321;48.690;9.022;2022-09-01T04:55:09;12.60;;;11.23;;
2622;SDS011;1321;48.690;9.022;2022-09-01T04:57:43;13.47;;;11.50;;
2622;SDS011;1321;48.690;9.022;2022-09-01T05:00:14;11.77;;;10.40;;
2622;SDS011;1321;48.690;9.022;2022-09-01T05:02:48;13.23;;;11.47;;
2622;SDS011;1321;48.690;9.022;2022-09-01T05:05:18;12.47;;;10.60;;
2622;SDS011;1321;48.690;9.022;2022-09-01T05:07:47;12.80;;;11.43;;
2622;SDS011;1321;48.690;9.022;2022-09-01T05:10:19;12.97;;;10.50;;
2622;SDS011;1321;48.690;9.022;2022-09-01T05:12:48;14.23;;;10.30;;
2622;SDS011;1321;48.690;9.022;2022-09-01T05:15:19;12.37;;;10.97;;
2622;SDS011;1321;48.690;9.022;2022-09-01T05:17:47;11.90;;;10.53;;
2622;SDS011;1321;48.690;9.022;2022-09-01T05:20:17;10.90;;;9.80;;
2622;SDS011;1321;48.690;9.022;2022-09-01T05:22:47;13.50;;;12.10;;
2622;SDS011;1321;48.690;9.022;2022-09-01T05:25:15;14.40;;;11.37;;
2622;SDS011;1321;48.690;9.022;2022-09-01T05:27:43;14.90;;;11.13;;
2622;SDS011;1321;48.690;9.022;2022-09-01T05:30:15;14.33;;;12.23;;
2622;SDS011;1321;48.690;9.022;2022-09-01T05:32:45;11.33;;;10.23;;
2622;SDS011;1321;48.690;9.022;2022-09-01T05:35:14;12.67;;;11.00;;
2622;SDS011;1321;48.690;9.022;2022-09-01T05:37:42;12.07;;;10.87;;
2622;SDS011;1321;48.690;9.022;2022-09-01T05:40:11;13.63;;;10.63;;
2622;SDS011;1321;48.690;9.022;2022-09-01T05:42:41;13.67;;;11.70;;
2622;SDS011;1321;48.690;9.022;2022-09-01T05:45:10;13.30;;;11.90;;
2622;SDS011;1321;48.690;9.022;2022-09-01T05:47:39;13.33;;;11.87;;
2622;SDS011;1321;48.690;9.022;2022-09-01T05:50:09;12.10;;;10.73;;
2622;SDS011;1321;48.690;9.022;2022-09-01T05:52:40;13.03;;;11.63;;
2622;SDS011;1321;48.690;9.022;2022-09-01T05:55:13;11.87;;;9.50;;
2622;SDS011;1321;48.690;9.022;2022-09-01T05:57:42;12.37;;;10.10;;
2622;SDS011;1321;48.690;9.022;2022-09-01T06:00:14;10.40;;;9.03;;
2622;SDS011;1321;48.690;9.022;2022-09-01T06:02:43;13.00;;;9.90;;
2622;SDS011;1321;48.690;9.022;2022-09-01T06:05:13;10.20;;;9.20;;
2622;SDS011;1321;48.690;9.022;2022-09-01T06:07:41;9.37;;;8.37;;
2622;SDS011;1321;48.690;9.022;2022-09-01T06:10:10;9.23;;;8.20;;
2622;SDS011;1321;48.690;9.022;2022-09-01T06:12:39;10.07;;;9.03;;
2622;SDS011;1321;48.690;9.022;2022-09-01T06:15:13;9.30;;;8.37;;
2622;SDS011;1321;48.690;9.022;2022-09-01T06:17:43;9.70;;;8.70;;
2622;SDS011;1321;48.690;9.022;2022-09-01T06:20:13;8.77;;;7.70;;
2622;SDS011;1321;48.690;9.022;2022-09-01T06:22:44;8.20;;;7.30;;
2622;SDS011;1321;48.690;9.022;2022-09-01T06:25:12;10.70;;;9.37;;
2622;SDS011;1321;48.690;9.022;2022-09-01T06:27:42;9.70;;;8.10;;
2622;SDS011;1321;48.690;9.022;2022-09-01T06:30:11;8.77;;;7.77;;
2622;SDS011;1321;48.690;9.022;2022-09-01T06:32:47;9.57;;;8.20;;
2622;SDS011;1321;48.690;9.022;2022-09-01T06:35:18;10.00;;;8.40;;
2622;SDS011;1321;48.690;9.022;2022-09-01T06:37:47;9.33;;;8.13;;
2622;SDS011;1321;48.690;9.022;2022-09-01T06:40:15;11.60;;;9.30;;
2622;SDS011;1321;48.690;9.022;2022-09-01T06:42:44;8.07;;;7.27;;
2622;SDS011;1321;48.690;9.022;2022-09-01T06:45:13;10.27;;;8.17;;
2622;SDS011;1321;48.690;9.022;2022-09-01T06:47:43;10.50;;;9.10;;
2622;SDS011;1321;48.690;9.022;2022-09-01T06:50:14;10.40;;;9.00;;
2622;SDS011;1321;48.690;9.022;2022-09-01T06:53:06;10.30;;;9.27;;
2622;SDS011;1321;48.690;9.022;2022-09-01T06:55:56;9.20;;;8.30;;
2622;SDS011;1321;48.690;9.022;2022-09-01T06:58:24;9.73;;;8.77;;
2622;SDS011;1321;48.690;9.022;2022-09-01T07:00:52;9.07;;;8.13;;
2622;SDS011;1321;48.690;9.022;2022-09-01T07:03:21;9.67;;;8.67;;
2622;SDS011;1321;48.690;9.022;2022-09-01T07:05:50;10.07;;;8.97;;
2622;SDS011;1321;48.690;9.022;2022-09-01T07:08:36;8.77;;;7.97;;
2622;SDS011;1321;48.690;9.022;2022-09-01T07:11:26;8.90;;;7.20;;
2622;SDS011;1321;48.690;9.022;2022-09-01T07:14:18;9.90;;;8.63;;
2622;SDS011;1321;48.690;9.022;2022-09-01T07:16:46;7.90;;;7.10;;
2622;SDS011;1321;48.690;9.022;2022-09-01T07:19:18;7.83;;;7.03;;
2622;SDS011;1321;48.690;9.022;2022-09-01T07:21:47;7.87;;;7.07;;
2622;SDS011;1321;48.690;9.022;2022-09-01T07:24:36;7.73;;;7.03;;
2622;SDS011;1321;48.690;9.022;2022-09-01T07:27:05;8.73;;;7.27;;
2622;SDS011;1321;48.690;9.022;2022-09-01T07:29:34;7.50;;;6.70;;
2622;SDS011;1321;48.690;9.022;2022-09-01T07:32:06;7.50;;;6.60;;
2622;SDS011;1321;48.690;9.022;2022-09-01T07:34:55;7.77;;;6.93;;
2622;SDS011;1321;48.690;9.022;2022-09-01T07:37:26;7.07;;;6.47;;
2622;SDS011;1321;48.690;9.022;2022-09-01T07:40:16;5.93;;;5.33;;
2622;SDS011;1321;48.690;9.022;2022-09-01T07:43:08;6.07;;;5.47;;
2622;SDS011;1321;48.690;9.022;2022-09-01T07:45:43;7.67;;;6.30;;
2622;SDS011;1321;48.690;9.022;2022-09-01T07:48:13;9.43;;;6.63;;
2622;SDS011;1321;48.690;9.022;2022-09-01T07:51:05;5.00;;;4.60;;
2622;SDS011;1321;48.690;9.022;2022-09-01T07:53:54;5.57;;;5.07;;
2622;SDS011;1321;48.690;9.022;2022-09-01T07:56:24;5.97;;;5.37;;
2622;SDS011;1321;48.690;9.022;2022-09-01T07:58:54;7.57;;;6.50;;
2622;SDS011;1321;48.690;9.022;2022-09-01T08:01:24;7.80;;;5.50;;
2622;SDS011;1321;48.690;9.022;2022-09-01T08:03:55;6.63;;;5.20;;
2622;SDS011;1321;48.690;9.022;2022-09-01T08:06:25;5.50;;;4.80;;
2622;SDS011;1321;48.690;9.022;2022-09-01T08:09:03;5.60;;;4.43;;
2622;SDS011;1321;48.690;9.022;2022-09-01T08:11:38;6.07;;;5.57;;
2622;SDS011;1321;48.690;9.022;2022-09-01T08:14:27;5.90;;;4.70;;
2622;SDS011;1321;48.690;9.022;2022-09-01T08:17:00;5.73;;;5.13;;
2622;SDS011;1321;48.690;9.022;2022-09-01T08:19:48;4.93;;;4.50;;
2622;SDS011;1321;48.690;9.022;2022-09-01T08:22:17;4.50;;;4.10;;
2622;SDS011;1321;48.690;9.022;2022-09-01T08:24:48;7.10;;;4.50;;
2622;SDS011;1321;48.690;9.022;2022-09-01T08:27:18;5.10;;;4.60;;
2622;SDS011;1321;48.690;9.022;2022-09-01T08:29:46;4.67;;;4.27;;
2622;SDS011;1321;48.690;9.022;2022-09-01T08:32:15;4.97;;;4.50;;
2622;SDS011;1321;48.690;9.022;2022-09-01T08:34:43;5.13;;;4.67;;
2622;SDS011;1321;48.690;9.022;2022-09-01T08:37:11;4.57;;;4.27;;
2622;SDS011;1321;48.690;9.022;2022-09-01T08:39:39;6.07;;;5.20;;
2622;SDS011;1321;48.690;9.022;2022-09-01T08:42:10;5.03;;;3.90;;
2622;SDS011;1321;48.690;9.022;2022-09-01T08:44:48;4.50;;;4.10;;
2622;SDS011;1321;48.690;9.022;2022-09-01T08:47:22;5.53;;;4.93;;
2622;SDS011;1321;48.690;9.022;2022-09-01T08:50:09;4.63;;;4.23;;
2622;SDS011;1321;48.690;9.022;2022-09-01T08:52:39;5.73;;;4.20;;
2622;SDS011;1321;48.690;9.022;2022-09-01T08:55:12;4.83;;;4.40;;
2622;SDS011;1321;48.690;9.022;2022-09-01T08:57:47;4.23;;;3.83;;
2622;SDS011;1321;48.690;9.022;2022-09-01T09:00:26;4.27;;;3.97;;
2622;SDS011;1321;48.690;9.022;2022-09-01T09:02:58;4.40;;;4.00;;
2622;SDS011;1321;48.690;9.022;2022-09-01T09:05:44;4.90;;;4.57;;
2622;SDS011;1321;48.690;9.022;2022-09-01T09:08:29;4.40;;;3.63;;
2622;SDS011;1321;48.690;9.022;2022-09-01T09:11:14;4.73;;;4.33;;
2622;SDS011;1321;48.690;9.022;2022-09-01T09:14:05;4.53;;;4.13;;
2622;SDS011;1321;48.690;9.022;2022-09-01T09:16:42;3.20;;;3.00;;
2622;SDS011;1321;48.690;9.022;2022-09-01T09:19:20;4.00;;;3.60;;
2622;SDS011;1321;48.690;9.022;2022-09-01T09:21:51;4.93;;;4.43;;
2622;SDS011;1321;48.690;9.022;2022-09-01T09:24:23;3.97;;;3.67;;
2622;SDS011;1321;48.690;9.022;2022-09-01T09:27:05;3.80;;;3.40;;
2622;SDS011;1321;48.690;9.022;2022-09-01T09:29:36;4.40;;;4.00;;
2622;SDS011;1321;48.690;9.022;2022-09-01T09:32:06;4.27;;;3.97;;
2622;SDS011;1321;48.690;9.022;2022-09-01T09:34:55;3.37;;;3.17;;
2622;SDS011;1321;48.690;9.022;2022-09-01T09:37:43;4.33;;;4.03;;
2622;SDS011;1321;48.690;9.022;2022-09-01T09:40:13;4.87;;;4.47;;
2622;SDS011;1321;48.690;9.022;2022-09-01T09:42:57;3.60;;;3.33;;
2622;SDS011;1321;48.690;9.022;2022-09-01T09:45:32;3.50;;;3.23;;
2622;SDS011;1321;48.690;9.022;2022-09-01T09:48:07;2.83;;;2.63;;
2622;SDS011;1321;48.690;9.022;2022-09-01T09:50:52;3.50;;;3.30;;
2622;SDS011;1321;48.690;9.022;2022-09-01T09:53:25;2.93;;;2.67;;
2622;SDS011;1321;48.690;9.022;2022-09-01T09:55:56;2.90;;;2.70;;
2622;SDS011;1321;48.690;9.022;2022-09-01T09:58:28;3.77;;;3.47;;
2622;SDS011;1321;48.690;9.022;2022-09-01T10:01:04;3.13;;;2.93;;
2622;SDS011;1321;48.690;9.022;2022-09-01T10:03:40;5.80;;;3.20;;
2622;SDS011;1321;48.690;9.022;2022-09-01T10:06:11;3.67;;;2.93;;
2622;SDS011;1321;48.690;9.022;2022-09-01T10:08:43;3.80;;;3.50;;
2622;SDS011;1321;48.690;9.022;2022-09-01T10:11:24;3.60;;;3.30;;
2622;SDS011;1321;48.690;9.022;2022-09-01T10:14:01;3.17;;;2.97;;
2622;SDS011;1321;48.690;9.022;2022-09-01T10:16:33;2.40;;;2.17;;
2622;SDS011;1321;48.690;9.022;2022-09-01T10:19:06;4.17;;;3.77;;
2622;SDS011;1321;48.690;9.022;2022-09-01T10:21:42;3.40;;;2.80;;
2622;SDS011;1321;48.690;9.022;2022-09-01T10:24:15;2.80;;;2.60;;
2622;SDS011;1321;48.690;9.022;2022-09-01T10:26:52;2.03;;;1.83;;
2622;SDS011;1321;48.690;9.022;2022-09-01T10:29:24;2.90;;;2.70;;
2622;SDS011;1321;48.690;9.022;2022-09-01T10:32:01;2.67;;;2.47;;
2622;SDS011;1321;48.690;9.022;2022-09-01T10:34:55;2.60;;;2.40;;
2622;SDS011;1321;48.690;9.022;2022-09-01T10:37:27;2.50;;;2.33;;
2622;SDS011;1321;48.690;9.022;2022-09-01T10:40:10;2.80;;;2.27;;
2622;SDS011;1321;48.690;9.022;2022-09-01T10:42:46;2.83;;;2.60;;
2622;SDS011;1321;48.690;9.022;2022-09-01T10:45:30;3.73;;;2.73;;
2622;SDS011;1321;48.690;9.022;2022-09-01T10:48:25;2.40;;;2.30;;
2622;SDS011;1321;48.690;9.022;2022-09-01T10:57:43;2.47;;;2.27;;
2622;SDS011;1321;48.690;9.022;2022-09-01T11:03:37;2.00;;;1.90;;
2622;SDS011;1321;48.690;9.022;2022-09-01T11:06:32;2.60;;;2.40;;
2622;SDS011;1321;48.690;9.022;2022-09-01T11:09:33;2.70;;;2.47;;
2622;SDS011;1321;48.690;9.022;2022-09-01T11:12:23;2.33;;;2.13;;
2622;SDS011;1321;48.690;9.022;2022-09-01T11:14:58;1.87;;;1.77;;
2622;SDS011;1321;48.690;9.022;2022-09-01T11:17:29;2.83;;;2.40;;
2622;SDS011;1321;48.690;9.022;2022-09-01T11:19:59;2.33;;;2.10;;
2622;SDS011;1321;48.690;9.022;2022-09-01T11:22:35;2.50;;;2.30;;
2622;SDS011;1321;48.690;9.022;2022-09-01T11:25:07;2.40;;;2.20;;
2622;SDS011;1321;48.690;9.022;2022-09-01T11:31:19;2.20;;;2.10;;
2622;SDS011;1321;48.690;9.022;2022-09-01T11:36:48;2.67;;;2.17;;
2622;SDS011;1321;48.690;9.022;2022-09-01T11:39:30;1.77;;;1.67;;
2622;SDS011;1321;48.690;9.022;2022-09-01T11:42:02;2.37;;;2.17;;
2622;SDS011;1321;48.690;9.022;2022-09-01T11:44:37;1.90;;;1.80;;
2622;SDS011;1321;48.690;9.022;2022-09-01T11:47:11;1.80;;;1.63;;
2622;SDS011;1321;48.690;9.022;2022-09-01T11:49:50;2.00;;;1.90;;
2622;SDS011;1321;48.690;9.022;2022-09-01T11:52:21;1.93;;;1.83;;
2622;SDS011;1321;48.690;9.022;2022-09-01T11:54:51;4.27;;;1.70;;
2622;SDS011;1321;48.690;9.022;2022-09-01T11:57:22;2.27;;;2.17;;
2622;SDS011;1321;48.690;9.022;2022-09-01T11:59:54;2.07;;;1.97;;
2622;SDS011;1321;48.690;9.022;2022-09-01T12:02:24;1.73;;;1.63;;
2622;SDS011;1321;48.690;9.022;2022-09-01T12:04:55;1.83;;;1.73;;
2622;SDS011;1321;48.690;9.022;2022-09-01T12:07:36;2.57;;;2.37;;
2622;SDS011;1321;48.690;9.022;2022-09-01T12:10:16;1.70;;;1.60;;
2622;SDS011;1321;48.690;9.022;2022-09-01T12:12:47;2.10;;;2.00;;
2622;SDS011;1321;48.690;9.022;2022-09-01T12:15:20;2.17;;;2.07;;
2622;SDS011;1321;48.690;9.022;2022-09-01T12:17:49;2.43;;;2.00;;
2622;SDS011;1321;48.690;9.022;2022-09-01T12:20:19;2.10;;;2.00;;
2622;SDS011;1321;48.690;9.022;2022-09-01T12:22:55;1.80;;;1.70;;
2622;SDS011;1321;48.690;9.022;2022-09-01T12:25:24;2.50;;;1.90;;
2622;SDS011;1321;48.690;9.022;2022-09-01T12:27:53;2.30;;;2.10;;
2622;SDS011;1321;48.690;9.022;2022-09-01T12:30:24;2.37;;;2.17;;
2622;SDS011;1321;48.690;9.022;2022-09-01T12:32:53;1.70;;;1.60;;
2622;SDS011;1321;48.690;9.022;2022-09-01T12:35:44;1.93;;;1.37;;
2622;SDS011;1321;48.690;9.022;2022-09-01T12:38:22;1.80;;;1.70;;
2622;SDS011;1321;48.690;9.022;2022-09-01T12:40:53;1.83;;;1.73;;
2622;SDS011;1321;48.690;9.022;2022-09-01T12:43:32;2.00;;;1.90;;
2622;SDS011;1321;48.690;9.022;2022-09-01T12:46:05;1.60;;;1.50;;
2622;SDS011;1321;48.690;9.022;2022-09-01T12:48:36;1.70;;;1.60;;
2622;SDS011;1321;48.690;9.022;2022-09-01T12:51:14;2.30;;;2.10;;
2622;SDS011;1321;48.690;9.022;2022-09-01T12:53:49;1.90;;;1.80;;
2622;SDS011;1321;48.690;9.022;2022-09-01T12:56:20;2.17;;;1.97;;
2622;SDS011;1321;48.690;9.022;2022-09-01T12:59:02;3.30;;;1.80;;
2622;SDS011;1321;48.690;9.022;2022-09-01T13:01:43;3.07;;;2.77;;
2622;SDS011;1321;48.690;9.022;2022-09-01T13:04:23;2.43;;;2.23;;
2622;SDS011;1321;48.690;9.022;2022-09-01T13:06:54;2.20;;;1.97;;
2622;SDS011;1321;48.690;9.022;2022-09-01T13:09:27;2.67;;;2.13;;
2622;SDS011;1321;48.690;9.022;2022-09-01T13:12:08;2.73;;;2.03;;
2622;SDS011;1321;48.690;9.022;2022-09-01T13:14:42;2.00;;;1.90;;
2622;SDS011;1321;48.690;9.022;2022-09-01T13:17:12;2.07;;;1.87;;
2622;SDS011;1321;48.690;9.022;2022-09-01T13:19:41;2.27;;;2.07;;
2622;SDS011;1321;48.690;9.022;2022-09-01T13:22:09;2.53;;;2.33;;
2622;SDS011;1321;48.690;9.022;2022-09-01T13:24:37;2.77;;;2.57;;
2622;SDS011;1321;48.690;9.022;2022-09-01T13:27:06;2.00;;;1.90;;
2622;SDS011;1321;48.690;9.022;2022-09-01T13:29:50;1.53;;;1.43;;
2622;SDS011;1321;48.690;9.022;2022-09-01T13:32:20;2.20;;;2.00;;
2622;SDS011;1321;48.690;9.022;2022-09-01T13:34:50;2.67;;;2.47;;
2622;SDS011;1321;48.690;9.022;2022-09-01T13:37:20;2.37;;;2.17;;
2622;SDS011;1321;48.690;9.022;2022-09-01T13:39:48;2.17;;;2.07;;
2622;SDS011;1321;48.690;9.022;2022-09-01T13:42:17;2.77;;;2.57;;
2622;SDS011;1321;48.690;9.022;2022-09-01T13:44:45;2.30;;;2.10;;
2622;SDS011;1321;48.690;9.022;2022-09-01T13:47:22;2.03;;;1.87;;
2622;SDS011;1321;48.690;9.022;2022-09-01T13:49:55;2.07;;;1.97;;
2622;SDS011;1321;48.690;9.022;2022-09-01T13:52:36;2.13;;;2.03;;
2622;SDS011;1321;48.690;9.022;2022-09-01T13:55:05;2.27;;;2.13;;
2622;SDS011;1321;48.690;9.022;2022-09-01T13:57:35;2.27;;;2.17;;
2622;SDS011;1321;48.690;9.022;2022-09-01T14:00:04;1.83;;;1.73;;
2622;SDS011;1321;48.690;9.022;2022-09-01T14:02:37;2.20;;;2.10;;
2622;SDS011;1321;48.690;9.022;2022-09-01T14:05:06;1.90;;;1.80;;
2622;SDS011;1321;48.690;9.022;2022-09-01T14:07:35;2.23;;;2.10;;
2622;SDS011;1321;48.690;9.022;2022-09-01T14:10:03;1.90;;;1.80;;
2622;SDS011;1321;48.690;9.022;2022-09-01T14:12:34;2.27;;;2.17;;
2622;SDS011;1321;48.690;9.022;2022-09-01T14:15:03;3.17;;;2.60;;
2622;SDS011;1321;48.690;9.022;2022-09-01T14:17:44;2.47;;;2.07;;
2622;SDS011;1321;48.690;9.022;2022-09-01T14:20:15;3.70;;;2.57;;
2622;SDS011;1321;48.690;9.022;2022-09-01T14:22:45;2.30;;;2.10;;
2622;SDS011;1321;48.690;9.022;2022-09-01T14:25:14;2.00;;;1.90;;
2622;SDS011;1321;48.690;9.022;2022-09-01T14:27:43;2.30;;;2.20;;
2622;SDS011;1321;48.690;9.022;2022-09-01T14:30:14;2.60;;;2.40;;
2622;SDS011;1321;48.690;9.022;2022-09-01T14:32:45;2.13;;;2.03;;
2622;SDS011;1321;48.690;9.022;2022-09-01T14:35:14;2.73;;;2.60;;
2622;SDS011;1321;48.690;9.022;2022-09-01T14:37:43;4.60;;;2.63;;
2622;SDS011;1321;48.690;9.022;2022-09-01T14:40:13;2.93;;;2.73;;
2622;SDS011;1321;48.690;9.022;2022-09-01T14:42:43;2.77;;;2.57;;
2622;SDS011;1321;48.690;9.022;2022-09-01T14:45:13;2.43;;;2.27;;
2622;SDS011;1321;48.690;9.022;2022-09-01T14:47:45;2.80;;;2.57;;
2622;SDS011;1321;48.690;9.022;2022-09-01T14:50:14;3.40;;;3.20;;
2622;SDS011;1321;48.690;9.022;2022-09-01T14:52:49;2.87;;;2.60;;
2622;SDS011;1321;48.690;9.022;2022-09-01T14:55:19;2.70;;;2.20;;
2622;SDS011;1321;48.690;9.022;2022-09-01T14:57:49;2.27;;;1.93;;
2622;SDS011;1321;48.690;9.022;2022-09-01T15:00:18;1.90;;;1.80;;
2622;SDS011;1321;48.690;9.022;2022-09-01T15:02:47;2.13;;;2.03;;
2622;SDS011;1321;48.690;9.022;2022-09-01T15:05:16;1.90;;;1.80;;
2622;SDS011;1321;48.690;9.022;2022-09-01T15:07:44;2.43;;;2.33;;
2622;SDS011;1321;48.690;9.022;2022-09-01T15:10:13;2.33;;;2.13;;
2622;SDS011;1321;48.690;9.022;2022-09-01T15:12:50;1.90;;;1.80;;
2622;SDS011;1321;48.690;9.022;2022-09-01T15:15:19;2.30;;;2.20;;
2622;SDS011;1321;48.690;9.022;2022-09-01T15:17:49;3.20;;;2.20;;
2622;SDS011;1321;48.690;9.022;2022-09-01T15:20:17;1.90;;;1.80;;
2622;SDS011;1321;48.690;9.022;2022-09-01T15:23:04;2.17;;;1.73;;
2622;SDS011;1321;48.690;9.022;2022-09-01T15:25:33;1.63;;;1.53;;
2622;SDS011;1321;48.690;9.022;2022-09-01T15:28:01;1.80;;;1.70;;
2622;SDS011;1321;48.690;9.022;2022-09-01T15:30:30;2.20;;;2.00;;
2622;SDS011;1321;48.690;9.022;2022-09-01T15:33:00;1.97;;;1.87;;
2622;SDS011;1321;48.690;9.022;2022-09-01T15:35:29;2.30;;;2.20;;
2622;SDS011;1321;48.690;9.022;2022-09-01T15:37:58;2.33;;;2.20;;
2622;SDS011;1321;48.690;9.022;2022-09-01T15:40:26;1.93;;;1.83;;
2622;SDS011;1321;48.690;9.022;2022-09-01T15:42:55;2.00;;;1.90;;
2622;SDS011;1321;48.690;9.022;2022-09-01T15:45:25;1.63;;;1.53;;
2622;SDS011;1321;48.690;9.022;2022-09-01T15:47:55;1.80;;;1.70;;
2622;SDS011;1321;48.690;9.022;2022-09-01T15:50:25;1.80;;;1.70;;
2622;SDS011;1321;48.690;9.022;2022-09-01T15:52:54;3.03;;;1.40;;
2622;SDS011;1321;48.690;9.022;2022-09-01T15:55:25;2.13;;;1.50;;
2622;SDS011;1321;48.690;9.022;2022-09-01T15:57:55;1.73;;;1.63;;